Time;durP1;ratioP1;P1;durP2;ratioP2;P2;SDS_P1;SDS_P2;PMS_P1;PMS_P2;Temp;Humidity;BMP_temperature;BMP_pressure;BME280_temperature;BME280_humidity;BME280_pressure;Samples;Min_cycle;Max_cycle;Signal;HPM_P1;HPM_P2
2023/07/01 00:00:14;;;;;;;2.70;1.50;;;;;;;16.63;100.00;100571.50;10155238;29;20518;-80
2023/07/01 00:05:14;;;;;;;3.97;1.30;;;;;;;16.62;100.00;100563.47;10154790;29;20058;-76
2023/07/01 00:10:15;;;;;;;8.00;2.47;;;;;;;16.60;100.00;100555.44;10154552;29;20095;-78
2023/07/01 00:15:15;;;;;;;11.07;1.45;;;;;;;16.62;100.00;100550.41;10154745;29;20074;-85
2023/07/01 00:20:16;;;;;;;4.72;1.70;;;;;;;16.61;100.00;100534.84;10138043;29;20044;-77
2023/07/01 00:25:16;;;;;;;5.10;1.27;;;;;;;16.60;100.00;100536.00;10153962;29;20105;-78
2023/07/01 00:30:17;;;;;;;5.20;1.73;;;;;;;16.63;100.00;100531.78;10155160;29;20028;-78
2023/07/01 00:35:17;;;;;;;5.25;1.52;;;;;;;16.65;100.00;100510.06;10171109;29;20048;-78
2023/07/01 00:40:18;;;;;;;4.32;1.63;;;;;;;16.64;100.00;100506.47;10174081;29;20067;-75
2023/07/01 00:45:18;;;;;;;5.72;1.27;;;;;;;16.65;100.00;100502.53;10177976;29;20523;-81
2023/07/01 00:50:19;;;;;;;5.22;1.30;;;;;;;16.66;100.00;100487.53;10175590;29;20040;-78
2023/07/01 00:55:19;;;;;;;8.35;1.67;;;;;;;16.65;100.00;100479.50;10177791;29;20044;-78
2023/07/01 01:00:20;;;;;;;5.90;1.80;;;;;;;16.70;100.00;100473.81;10162470;29;20040;-77
2023/07/01 01:05:25;;;;;;;6.35;1.20;;;;;;;16.72;100.00;100458.50;10178774;29;20033;-78
2023/07/01 01:10:25;;;;;;;5.80;1.75;;;;;;;16.71;100.00;100451.28;10142395;29;20040;-84
2023/07/01 01:15:26;;;;;;;4.65;1.70;;;;;;;16.79;100.00;100451.72;10146775;29;20064;-83
2023/07/01 01:20:28;;;;;;;5.50;1.50;;;;;;;16.80;100.00;100442.25;10162513;29;20103;-83
2023/07/01 01:25:40;;;;;;;3.03;1.13;;;;;;;16.81;100.00;100435.59;10131336;29;20044;-82
2023/07/01 01:30:40;;;;;;;6.07;1.27;;;;;;;16.79;100.00;100418.38;10177036;29;20040;-87
2023/07/01 01:35:41;;;;;;;6.10;1.58;;;;;;;16.79;100.00;100412.81;10162403;29;20085;-86
2023/07/01 01:40:52;;;;;;;6.07;1.30;;;;;;;16.78;100.00;100398.06;10132080;29;20118;-82
2023/07/01 01:45:53;;;;;;;5.38;1.60;;;;;;;16.75;100.00;100385.63;10162286;29;20036;-88
2023/07/01 01:50:54;;;;;;;8.70;1.35;;;;;;;16.84;100.00;100388.53;10130340;29;20059;-83
2023/07/01 01:55:54;;;;;;;6.40;2.10;;;;;;;16.79;100.00;100380.25;10145154;29;20044;-81
2023/07/01 02:00:55;;;;;;;4.38;1.90;;;;;;;16.85;100.00;100386.59;10144621;29;20100;-84
2023/07/01 02:05:55;;;;;;;4.18;2.13;;;;;;;16.85;100.00;100373.50;10160882;29;20051;-80
2023/07/01 02:10:57;;;;;;;4.15;1.65;;;;;;;16.80;100.00;100381.09;10177457;29;20044;-88
2023/07/01 02:15:58;;;;;;;6.88;1.63;;;;;;;16.77;100.00;100376.16;10160803;29;20044;-88
2023/07/01 02:20:58;;;;;;;4.75;1.90;;;;;;;16.72;100.00;100364.00;10128340;29;21027;-82
2023/07/01 02:25:59;;;;;;;7.03;3.25;;;;;;;16.44;100.00;100382.59;10176756;29;20040;-80
2023/07/01 02:30:59;;;;;;;10.18;3.50;;;;;;;15.86;100.00;100375.53;10140416;29;20036;-70
2023/07/01 02:36:00;;;;;;;7.38;3.30;;;;;;;15.53;100.00;100372.66;10143161;29;24729;-75
2023/07/01 02:41:01;;;;;;;11.93;3.72;;;;;;;15.46;100.00;100360.28;10157736;29;20036;-77
2023/07/01 02:46:01;;;;;;;6.05;3.25;;;;;;;15.50;100.00;100348.31;10173693;29;20557;-78
2023/07/01 02:51:02;;;;;;;6.25;3.22;;;;;;;15.56;100.00;100348.22;10173124;29;20040;-78
2023/07/01 02:56:03;;;;;;;5.93;2.45;;;;;;;15.63;100.00;100320.94;10157335;29;20047;-77
2023/07/01 03:01:04;;;;;;;8.15;3.10;;;;;;;15.68;100.00;100323.59;10173628;29;20044;-79
2023/07/01 03:06:05;;;;;;;4.90;2.58;;;;;;;15.65;100.00;100307.56;10156246;29;20059;-78
2023/07/01 03:11:06;;;;;;;7.32;3.00;;;;;;;15.74;100.00;100322.44;10155629;29;20575;-79
2023/07/01 03:16:07;;;;;;;9.57;2.88;;;;;;;15.67;100.00;100299.78;10173420;29;20036;-78
2023/07/01 03:21:08;;;;;;;8.48;2.53;;;;;;;15.70;100.00;100307.47;10156307;29;20036;-77
2023/07/01 03:26:08;;;;;;;10.10;3.50;;;;;;;15.72;100.00;100296.94;10173989;29;20040;-77
2023/07/01 03:31:09;;;;;;;7.35;3.08;;;;;;;15.75;100.00;100271.38;10173300;29;20108;-71
2023/07/01 03:36:09;;;;;;;5.72;2.85;;;;;;;15.90;100.00;100287.72;10140967;29;20044;-78
2023/07/01 03:41:10;;;;;;;10.27;3.97;;;;;;;15.93;100.00;100275.19;10154600;29;20036;-76
2023/07/01 03:46:10;;;;;;;8.90;2.53;;;;;;;15.94;100.00;100268.53;10154471;29;20063;-75
2023/07/01 03:51:11;;;;;;;5.97;3.53;;;;;;;16.00;100.00;100267.31;10124328;29;20044;-77
2023/07/01 03:56:11;;;;;;;4.65;2.45;;;;;;;16.01;100.00;100270.91;10173083;29;20040;-78
2023/07/01 04:01:16;;;;;;;11.38;2.10;;;;;;;16.02;100.00;100258.66;10155331;29;20060;-80
2023/07/01 04:06:16;;;;;;;6.65;2.90;;;;;;;16.04;100.00;100259.16;10156654;29;20036;-77
2023/07/01 04:11:17;;;;;;;4.88;2.33;;;;;;;15.98;100.00;100250.13;10155156;29;20051;-78
2023/07/01 04:16:18;;;;;;;6.18;2.15;;;;;;;15.94;100.00;100249.91;10177441;29;20047;-78
2023/07/01 04:21:18;;;;;;;4.65;2.47;;;;;;;15.83;100.00;100234.56;10177601;29;20051;-78
2023/07/01 04:26:19;;;;;;;12.75;3.35;;;;;;;15.71;100.00;100240.56;10179852;29;20032;-87
2023/07/01 04:31:19;;;;;;;4.63;2.60;;;;;;;15.67;100.00;100242.31;10162504;29;20040;-79
2023/07/01 04:36:20;;;;;;;4.80;2.50;;;;;;;15.56;100.00;100232.50;10163092;29;20055;-71
2023/07/01 04:41:20;;;;;;;7.47;2.72;;;;;;;15.54;100.00;100232.81;10147282;29;20032;-79
2023/07/01 04:46:21;;;;;;;8.80;3.30;;;;;;;15.50;100.00;100242.03;10162248;29;20043;-78
2023/07/01 04:51:21;;;;;;;6.38;2.83;;;;;;;15.42;100.00;100224.16;10159977;29;20063;-76
2023/07/01 04:56:23;;;;;;;4.05;2.95;;;;;;;15.51;100.00;100229.81;10160507;29;20044;-78
2023/07/01 05:01:24;;;;;;;4.88;2.65;;;;;;;15.10;100.00;100175.84;10145349;29;20060;-78
2023/07/01 05:06:24;;;;;;;5.20;2.78;;;;;;;15.31;100.00;100211.56;10178672;29;20044;-81
2023/07/01 05:11:25;;;;;;;6.47;2.38;;;;;;;15.34;100.00;100210.97;10177983;29;20036;-81
2023/07/01 05:16:26;;;;;;;5.65;3.03;;;;;;;15.28;100.00;100206.63;10177487;29;20036;-80
2023/07/01 05:21:28;;;;;;;6.63;2.60;;;;;;;15.14;100.00;100187.97;10160829;29;20089;-87
2023/07/01 05:26:28;;;;;;;5.15;2.65;;;;;;;15.28;100.00;100192.78;10129576;29;20068;-81
2023/07/01 05:31:29;;;;;;;6.03;2.15;;;;;;;15.32;100.00;100193.81;10177931;29;20079;-79
2023/07/01 05:36:29;;;;;;;4.32;2.75;;;;;;;15.40;100.00;100190.34;10177680;29;20068;-76
2023/07/01 05:41:30;;;;;;;4.85;2.90;;;;;;;15.43;100.00;100184.19;10176814;29;20528;-83
2023/07/01 05:46:31;;;;;;;4.60;2.78;;;;;;;15.40;100.00;100186.72;10159739;29;20068;-76
2023/07/01 05:51:32;;;;;;;5.32;2.70;;;;;;;15.51;100.00;100197.34;10158964;29;20408;-77
2023/07/01 05:56:32;;;;;;;6.82;3.40;;;;;;;15.51;100.00;100193.75;10160257;29;20044;-78
2023/07/01 06:01:33;;;;;;;4.70;2.90;;;;;;;15.51;100.00;100196.53;10177195;29;20100;-81
2023/07/01 06:06:33;;;;;;;8.63;2.85;;;;;;;15.57;100.00;100186.19;10159198;29;20144;-77
2023/07/01 06:11:34;;;;;;;5.15;3.13;;;;;;;15.75;100.00;100177.00;10156994;29;20055;-78
2023/07/01 06:16:35;;;;;;;6.00;2.70;;;;;;;15.84;100.00;100180.69;10174916;29;20393;-79
2023/07/01 06:21:35;;;;;;;7.32;3.33;;;;;;;15.80;100.00;100182.44;10159040;29;20040;-75
2023/07/01 06:26:36;;;;;;;8.93;4.40;;;;;;;15.83;100.00;100176.25;10176356;29;20052;-76
2023/07/01 06:31:37;;;;;;;4.90;3.22;;;;;;;15.93;100.00;100167.75;10175350;29;20044;-77
2023/07/01 06:36:37;;;;;;;5.55;3.45;;;;;;;15.95;100.00;100173.00;10158126;29;20036;-76
2023/07/01 06:41:38;;;;;;;5.38;3.08;;;;;;;15.84;100.00;100144.63;10117133;29;20073;-79
2023/07/01 06:46:39;;;;;;;5.93;3.80;;;;;;;15.95;100.00;100167.44;10148358;29;20041;-76
2023/07/01 06:51:41;;;;;;;5.18;3.08;;;;;;;16.01;100.00;100173.72;10157734;29;20040;-81
2023/07/01 06:56:42;;;;;;;4.80;3.40;;;;;;;16.03;100.00;100171.47;10142447;29;20067;-79
2023/07/01 07:01:42;;;;;;;7.03;3.92;;;;;;;16.02;100.00;100167.88;10157409;29;20423;-74
2023/07/01 07:06:43;;;;;;;8.75;4.55;;;;;;;15.93;100.00;100176.06;10173264;29;20040;-77
2023/07/01 07:11:43;;;;;;;10.68;4.85;;;;;;;16.05;100.00;100171.97;10156288;29;20032;-75
2023/07/01 07:16:47;;;;;;;8.88;5.18;;;;;;;15.99;100.00;100174.03;10173691;29;20040;-76
2023/07/01 07:21:48;;;;;;;11.05;5.35;;;;;;;15.81;100.00;100159.09;10156880;29;20060;-75
2023/07/01 07:26:59;;;;;;;7.57;5.25;;;;;;;15.97;100.00;100172.69;10140841;29;20036;-74
2023/07/01 07:32:00;;;;;;;9.15;5.22;;;;;;;15.94;100.00;100160.25;10173970;29;20092;-74
2023/07/01 07:37:00;;;;;;;12.20;4.95;;;;;;;16.07;100.00;100158.63;10140347;29;20045;-78
2023/07/01 07:42:00;;;;;;;8.38;5.50;;;;;;;16.09;100.00;100159.94;10136163;29;20532;-78
2023/07/01 07:47:01;;;;;;;6.63;5.07;;;;;;;16.20;100.00;100166.09;10136072;29;20489;-76
2023/07/01 07:52:02;;;;;;;5.35;4.10;;;;;;;16.30;100.00;100167.84;10151006;29;20092;-78
2023/07/01 07:57:03;;;;;;;7.43;5.03;;;;;;;16.27;100.00;100160.97;10133522;29;20052;-75
2023/07/01 08:02:03;;;;;;;6.75;4.13;;;;;;;16.28;100.00;100164.56;10154671;29;20065;-76
2023/07/01 08:07:04;;;;;;;7.45;4.57;;;;;;;16.24;100.00;100153.25;10121314;29;20040;-74
2023/07/01 08:12:05;;;;;;;10.10;4.00;;;;;;;16.30;100.00;100167.84;10120073;29;20037;-77
2023/07/01 08:17:06;;;;;;;5.68;3.90;;;;;;;16.30;100.00;100162.28;10135609;29;20627;-78
2023/07/01 08:22:06;;;;;;;5.75;4.15;;;;;;;16.48;100.00;100160.53;10133725;29;20064;-75
2023/07/01 08:27:07;;;;;;;4.45;4.00;;;;;;;16.59;100.00;100150.81;10150827;29;20037;-78
2023/07/01 08:32:07;;;;;;;6.40;3.90;;;;;;;16.72;100.00;100135.25;10136057;29;20036;-78
2023/07/01 08:37:08;;;;;;;5.60;3.90;;;;;;;16.60;100.00;100104.41;10134796;29;20044;-78
2023/07/01 08:42:09;;;;;;;6.10;4.72;;;;;;;16.89;100.00;100142.97;10123749;29;20040;-77
2023/07/01 08:47:09;;;;;;;6.10;4.45;;;;;;;17.04;100.00;100141.75;10134376;29;20044;-78
2023/07/01 08:52:11;;;;;;;5.57;3.88;;;;;;;17.02;100.00;100136.50;10130789;29;20044;-78
2023/07/01 08:57:11;;;;;;;6.45;4.35;;;;;;;17.11;100.00;100120.69;10138493;29;20040;-78
2023/07/01 09:02:12;;;;;;;7.30;3.97;;;;;;;17.29;100.00;100131.94;10128981;29;20432;-77
2023/07/01 09:07:12;;;;;;;5.40;4.28;;;;;;;17.37;100.00;100138.72;10159754;29;20135;-77
2023/07/01 09:12:13;;;;;;;8.93;4.25;;;;;;;17.33;100.00;100133.78;10129551;29;20024;-78
2023/07/01 09:17:27;;;;;;;6.18;4.25;;;;;;;17.25;100.00;100142.06;10161518;29;20096;-80
2023/07/01 09:22:28;;;;;;;5.88;4.30;;;;;;;17.32;100.00;100148.00;10161244;29;20063;-79
2023/07/01 09:27:46;;;;;;;6.25;4.63;;;;;;;17.22;100.00;100137.97;10129913;29;20123;-84
2023/07/01 09:32:47;;;;;;;6.82;4.88;;;;;;;17.10;100.00;100135.75;10159931;29;20473;-80
2023/07/01 09:38:00;;;;;;;9.20;5.10;;;;;;;17.24;100.00;100134.84;10175559;29;20060;-79
2023/07/01 09:43:01;;;;;;;7.00;5.78;;;;;;;17.43;100.00;100132.69;10145181;29;20068;-78
2023/07/01 09:48:10;;;;;;;9.40;5.88;;;;;;;17.37;100.00;100125.63;10159917;29;20508;-77
2023/07/01 09:53:36;;;;;;;8.43;6.22;;;;;;;17.41;100.00;100121.06;10145367;29;20044;-77
2023/07/01 09:58:37;;;;;;;7.60;6.03;;;;;;;17.35;100.00;100125.94;10173629;29;20059;-77
2023/07/01 10:03:37;;;;;;;7.47;5.55;;;;;;;17.37;100.00;100125.63;10143229;29;20047;-77
2023/07/01 10:08:38;;;;;;;7.47;5.35;;;;;;;17.27;100.00;100117.53;10159416;29;20523;-76
2023/07/01 10:13:43;;;;;;;7.82;5.38;;;;;;;17.43;100.00;100127.13;10141931;29;20048;-74
2023/07/01 10:18:44;;;;;;;6.77;4.67;;;;;;;17.49;100.00;100108.34;10130015;29;20047;-78
2023/07/01 10:23:47;;;;;;;5.55;4.90;;;;;;;17.69;100.00;100109.72;10143319;29;20087;-80
2023/07/01 10:28:48;;;;;;;6.32;4.78;;;;;;;18.00;100.00;100112.50;10158056;29;20040;-78
2023/07/01 10:33:50;;;;;;;5.80;4.82;;;;;;;18.07;100.00;100107.28;10175267;29;20044;-79
2023/07/01 10:38:50;;;;;;;7.07;4.60;;;;;;;18.13;100.00;100103.19;10175379;29;20040;-83
2023/07/01 10:43:51;;;;;;;6.30;4.07;;;;;;;18.03;100.00;100089.56;10157308;29;20044;-77
2023/07/01 10:49:03;;;;;;;6.30;5.20;;;;;;;18.23;100.00;100093.72;10141431;29;20040;-78
2023/07/01 10:54:05;;;;;;;6.15;4.28;;;;;;;18.17;100.00;100072.75;10174988;29;20081;-79
2023/07/01 10:59:22;;;;;;;6.10;4.68;;;;;;;18.57;100.00;100094.91;10119397;29;20067;-78
2023/07/01 11:04:23;;;;;;;5.25;4.40;;;;;;;18.74;100.00;100078.16;10135639;29;20068;-75
2023/07/01 11:09:32;;;;;;;5.82;3.70;;;;;;;18.71;100.00;100086.38;10119555;29;20041;-76
2023/07/01 11:14:38;;;;;;;6.22;4.15;;;;;;;18.72;100.00;100097.19;10136668;29;20111;-75
2023/07/01 11:19:39;;;;;;;6.82;4.65;;;;;;;18.54;100.00;100053.72;10133515;29;20040;-78
2023/07/01 11:24:39;;;;;;;7.18;5.65;;;;;;;18.56;100.00;100084.88;10116656;29;20037;-76
2023/07/01 11:29:47;;;;;;;8.35;5.78;;;;;;;18.50;100.00;100087.03;10133908;29;20131;-77
2023/07/01 11:34:49;;;;;;;9.00;5.90;;;;;;;18.60;100.00;100091.44;10134634;29;20064;-76
2023/07/01 11:39:50;;;;;;;9.50;6.63;;;;;;;18.73;100.00;100095.25;10118201;29;20039;-75
2023/07/01 11:44:50;;;;;;;8.73;6.63;;;;;;;18.70;100.00;100099.47;10133876;29;20480;-75
2023/07/01 11:49:51;;;;;;;10.45;6.57;;;;;;;18.57;100.00;100103.28;10096594;29;20100;-76
2023/07/01 11:54:54;;;;;;;10.10;6.43;;;;;;;18.38;100.00;100109.16;10114690;29;20059;-76
2023/07/01 11:59:58;;;;;;;9.00;5.82;;;;;;;18.23;100.00;100116.03;10150143;29;20492;-74
2023/07/01 12:04:59;;;;;;;7.55;4.95;;;;;;;18.24;100.00;100117.66;10151264;29;20048;-74
2023/07/01 12:10:20;;;;;;;5.13;3.20;;;;;;;18.28;100.00;100115.84;10151656;29;20048;-74
2023/07/01 12:15:21;;;;;;;3.00;1.80;;;;;;;18.88;100.00;100124.63;10135980;29;20054;-76
2023/07/01 12:20:21;;;;;;;1.48;1.02;;;;;;;19.02;100.00;100114.13;10151077;29;20084;-77
2023/07/01 12:25:22;;;;;;;2.70;1.10;;;;;;;19.12;100.00;100108.19;10152262;29;20047;-74
2023/07/01 12:30:22;;;;;;;0.80;0.50;;;;;;;19.02;100.00;100107.72;10127628;29;20036;-74
2023/07/01 12:35:23;;;;;;;2.70;1.05;;;;;;;18.71;100.00;100109.50;10155251;29;20048;-75
2023/07/01 12:40:29;;;;;;;1.77;1.20;;;;;;;19.01;100.00;100109.69;10159256;29;20056;-72
2023/07/01 12:45:30;;;;;;;;;;;;;;;19.65;100.00;100114.44;10172177;29;20568;-74
2023/07/01 12:50:31;;;;;;;3.53;1.25;;;;;;;20.02;100.00;100105.63;10156994;29;19947;-74
2023/07/01 12:55:31;;;;;;;2.60;1.73;;;;;;;20.25;100.00;100092.97;10123101;29;20115;-76
2023/07/01 13:00:31;;;;;;;2.75;2.00;;;;;;;20.85;100.00;100098.50;10159703;29;20051;-73
2023/07/01 13:05:32;;;;;;;4.80;2.88;;;;;;;20.78;100.00;100096.25;10156782;29;20059;-73
2023/07/01 13:10:36;;;;;;;10.13;4.03;;;;;;;;;;10129363;29;20036;-74
2023/07/01 13:15:41;;;;;;;4.70;3.60;;;;;;;20.92;100.00;100087.59;10156317;29;20123;-75
2023/07/01 13:20:41;;;;;;;4.97;3.05;;;;;;;21.09;100.00;100076.19;10135458;29;20050;-76
2023/07/01 13:25:42;;;;;;;7.28;4.65;;;;;;;20.59;100.00;100096.75;10177871;29;20586;-75
2023/07/01 13:30:47;;;;;;;12.88;5.45;;;;;;;19.92;100.00;100088.06;10177339;29;20050;-76
2023/07/01 13:35:48;;;;;;;5.47;4.75;;;;;;;19.58;100.00;100102.19;10161154;29;20121;-76
2023/07/01 13:40:49;;;;;;;11.43;5.43;;;;;;;19.37;100.00;100086.16;10176120;29;20041;-76
2023/07/01 13:45:50;;;;;;;6.45;4.35;;;;;;;19.73;100.00;100096.06;10175226;29;20042;-77
2023/07/01 13:50:51;;;;;;;5.65;3.80;;;;;;;20.12;100.00;100091.28;10159239;29;20040;-77
2023/07/01 13:55:52;;;;;;;10.20;5.07;;;;;;;20.21;100.00;100106.00;10176777;29;20059;-77
2023/07/01 14:00:53;;;;;;;8.90;4.28;;;;;;;19.99;100.00;100098.75;10159469;29;20393;-79
2023/07/01 14:05:55;;;;;;;8.77;4.57;;;;;;;20.30;100.00;100115.16;10144523;29;20040;-77
2023/07/01 14:10:55;;;;;;;5.28;3.28;;;;;;;20.20;100.00;100115.56;10158517;29;20033;-76
2023/07/01 14:15:56;;;;;;;4.82;3.00;;;;;;;19.70;100.00;100128.28;10157426;29;20056;-75
2023/07/01 14:21:04;;;;;;;3.65;2.55;;;;;;;19.76;100.00;100131.69;10175480;29;20076;-75
2023/07/01 14:26:16;;;;;;;4.15;1.80;;;;;;;20.01;100.00;100121.56;10165879;29;20043;-76
2023/07/01 14:31:17;;;;;;;3.08;1.85;;;;;;;20.03;100.00;100133.25;10148837;29;20054;-76
2023/07/01 14:36:22;;;;;;;3.70;1.98;;;;;;;20.18;100.00;100131.84;10122035;29;20060;-76
2023/07/01 14:41:26;;;;;;;5.25;1.80;;;;;;;20.47;100.00;100133.78;10118828;29;20056;-76
2023/07/01 14:46:28;;;;;;;3.42;1.65;;;;;;;20.08;100.00;100138.63;10136343;29;20040;-75
2023/07/01 14:51:28;;;;;;;2.67;1.50;;;;;;;19.92;100.00;100143.94;10137726;29;20063;-77
2023/07/01 14:56:29;;;;;;;2.70;2.03;;;;;;;19.61;100.00;100155.38;10125676;29;20512;-75
2023/07/01 15:01:29;;;;;;;2.53;1.92;;;;;;;19.34;100.00;100153.78;10150454;29;20056;-77
2023/07/01 15:06:30;;;;;;;3.22;2.00;;;;;;;19.29;100.00;100151.19;10153611;29;20036;-76
2023/07/01 15:11:30;;;;;;;2.75;1.80;;;;;;;19.47;100.00;100152.78;10155157;29;20544;-76
2023/07/01 15:16:31;;;;;;;3.95;2.38;;;;;;;19.53;100.00;100150.63;10172560;29;20483;-78
2023/07/01 15:21:31;;;;;;;3.08;2.58;;;;;;;19.63;100.00;100155.84;10172000;29;20572;-79
2023/07/01 15:26:32;;;;;;;5.20;2.75;;;;;;;19.72;100.00;100147.47;10171909;29;20125;-77
2023/07/01 15:31:32;;;;;;;9.82;2.88;;;;;;;19.64;100.00;100167.84;10155693;29;20063;-78
2023/07/01 15:36:33;;;;;;;4.68;2.47;;;;;;;19.63;100.00;100182.97;10172757;29;20051;-76
2023/07/01 15:41:33;;;;;;;4.30;3.03;;;;;;;19.49;100.00;100171.97;10155429;29;20036;-77
2023/07/01 15:46:35;;;;;;;4.25;2.95;;;;;;;19.31;100.00;100171.22;10172004;29;20473;-76
2023/07/01 15:51:37;;;;;;;7.65;2.97;;;;;;;19.28;100.00;100177.44;10172307;29;20044;-75
2023/07/01 15:56:38;;;;;;;4.68;3.05;;;;;;;19.53;100.00;100168.22;10155351;29;20059;-78
2023/07/01 16:01:38;;;;;;;6.13;1.92;;;;;;;19.89;100.00;100164.19;10172513;29;20043;-80
2023/07/01 16:06:39;;;;;;;5.93;1.80;;;;;;;20.30;100.00;100167.47;10154713;29;20036;-77
2023/07/01 16:11:39;;;;;;;3.00;1.88;;;;;;;19.90;100.00;100171.41;10170650;29;20032;-75
2023/07/01 16:16:40;;;;;;;2.88;1.60;;;;;;;19.64;100.00;100176.25;10171306;29;20036;-83
2023/07/01 16:21:40;;;;;;;3.25;2.17;;;;;;;19.47;100.00;100174.28;10154921;29;20032;-80
2023/07/01 16:26:42;;;;;;;2.20;1.58;;;;;;;19.45;100.00;100165.41;10154764;29;20051;-80
2023/07/01 16:31:42;;;;;;;3.45;1.70;;;;;;;19.56;100.00;100178.69;10139513;29;20525;-79
2023/07/01 16:36:42;;;;;;;3.58;1.25;;;;;;;19.67;100.00;100183.94;10171005;29;20040;-80
2023/07/01 16:41:43;;;;;;;4.07;1.00;;;;;;;19.56;100.00;100180.69;10154269;29;20028;-81
2023/07/01 16:46:43;;;;;;;3.00;1.10;;;;;;;19.41;100.00;100182.03;10169990;29;20055;-77
2023/07/01 16:51:44;;;;;;;4.28;1.42;;;;;;;19.32;100.00;100190.38;10139176;29;20601;-78
2023/07/01 16:56:47;;;;;;;2.40;1.00;;;;;;;19.27;100.00;100193.38;10169425;29;20036;-79
2023/07/01 17:01:47;;;;;;;3.38;0.75;;;;;;;19.14;100.00;100186.81;10154552;29;20087;-78
2023/07/01 17:06:48;;;;;;;5.35;1.13;;;;;;;19.23;100.00;100194.34;10153549;29;20394;-77
2023/07/01 17:11:48;;;;;;;4.38;0.90;;;;;;;19.01;100.00;100185.00;10137908;29;20048;-76
2023/07/01 17:16:49;;;;;;;6.28;0.90;;;;;;;18.80;100.00;100209.09;10138242;29;20059;-78
2023/07/01 17:21:49;;;;;;;5.50;1.10;;;;;;;18.66;100.00;100212.81;10133329;29;20037;-77
2023/07/01 17:26:50;;;;;;;4.45;1.20;;;;;;;18.43;100.00;100220.47;10177311;29;20036;-78
2023/07/01 17:31:50;;;;;;;1.65;1.00;;;;;;;18.32;100.00;100235.84;10159861;29;20040;-80
2023/07/01 17:36:51;;;;;;;4.35;1.30;;;;;;;18.45;100.00;100240.47;10143147;29;20100;-79
2023/07/01 17:41:51;;;;;;;2.78;0.88;;;;;;;18.33;100.00;100246.69;10176352;29;20059;-79
2023/07/01 17:46:52;;;;;;;2.13;1.23;;;;;;;18.20;100.00;100250.38;10142802;29;20046;-83
2023/07/01 17:51:52;;;;;;;2.92;1.60;;;;;;;18.03;100.00;100250.31;10143641;29;20051;-81
2023/07/01 17:56:54;;;;;;;4.72;1.08;;;;;;;17.94;100.00;100262.22;10158565;29;20040;-82
2023/07/01 18:01:55;;;;;;;5.50;1.27;;;;;;;17.04;100.00;100127.84;10137161;29;20044;-81
2023/07/01 18:06:55;;;;;;;3.05;1.02;;;;;;;17.73;100.00;100244.34;10142060;29;20036;-84
2023/07/01 18:11:56;;;;;;;3.53;0.70;;;;;;;17.63;100.00;100248.25;10142584;29;20067;-81
2023/07/01 18:16:57;;;;;;;3.15;0.93;;;;;;;17.64;100.00;100277.69;10143083;29;20054;-82
2023/07/01 18:21:57;;;;;;;4.68;0.82;;;;;;;17.65;100.00;100272.97;10127358;29;20052;-81
2023/07/01 18:26:59;;;;;;;4.85;0.88;;;;;;;17.63;100.00;100275.22;10158298;29;20283;-84
2023/07/01 18:31:59;;;;;;;4.88;0.98;;;;;;;17.54;100.00;100273.22;10141815;29;20043;-82
2023/07/01 18:37:00;;;;;;;3.70;0.90;;;;;;;17.48;100.00;100285.59;10109188;29;20047;-82
2023/07/01 18:42:00;;;;;;;2.08;0.68;;;;;;;17.41;100.00;100278.84;10156998;29;20099;-81
2023/07/01 18:47:01;;;;;;;3.60;1.20;;;;;;;17.43;100.00;100294.09;10156704;29;20058;-82
2023/07/01 18:52:02;;;;;;;2.63;0.68;;;;;;;17.24;100.00;100297.03;10171453;29;20055;-82
2023/07/01 18:57:03;;;;;;;3.17;0.77;;;;;;;17.24;100.00;100299.81;10155740;29;20830;-84
2023/07/01 19:02:04;;;;;;;3.55;0.70;;;;;;;17.21;100.00;100289.31;10158529;29;20099;-83
2023/07/01 19:07:07;;;;;;;1.45;0.77;;;;;;;17.10;100.00;100285.94;10155632;29;20548;-83
2023/07/01 19:12:08;;;;;;;1.83;0.85;;;;;;;17.10;100.00;100291.50;10138282;29;20040;-84
2023/07/01 19:17:09;;;;;;;3.67;0.68;;;;;;;17.11;100.00;100297.88;10156121;29;20123;-81
2023/07/01 19:22:12;;;;;;;3.55;0.93;;;;;;;17.06;100.00;100293.25;10172433;29;20040;-83
2023/07/01 19:27:12;;;;;;;4.22;1.15;;;;;;;16.98;100.00;100285.66;10155882;29;20040;-80
2023/07/01 19:32:13;;;;;;;5.38;1.08;;;;;;;16.92;100.00;100295.22;10172643;29;20040;-81
2023/07/01 19:37:13;;;;;;;2.97;1.00;;;;;;;16.85;100.00;100300.41;10154026;29;20066;-80
2023/07/01 19:42:13;;;;;;;2.65;1.00;;;;;;;16.72;100.00;100286.19;10154294;29;20036;-79
2023/07/01 19:47:17;;;;;;;2.92;0.70;;;;;;;16.69;100.00;100303.47;10136968;29;20055;-80
2023/07/01 19:52:17;;;;;;;2.38;0.88;;;;;;;16.73;100.00;100323.94;10135098;29;20044;-83
2023/07/01 19:57:18;;;;;;;3.33;1.20;;;;;;;16.67;100.00;100330.72;10152671;29;20056;-80
2023/07/01 20:02:18;;;;;;;3.40;1.15;;;;;;;16.48;100.00;100318.91;10162216;29;20103;-85
2023/07/01 20:07:19;;;;;;;4.55;1.25;;;;;;;16.58;100.00;100346.50;10137474;29;20036;-82
2023/07/01 20:12:19;;;;;;;4.20;1.05;;;;;;;16.56;100.00;100368.22;10170918;29;20108;-76
2023/07/01 20:17:24;;;;;;;2.53;1.00;;;;;;;16.48;100.00;100368.91;10155305;29;20040;-83
2023/07/01 20:22:25;;;;;;;2.55;1.33;;;;;;;16.39;100.00;100354.06;10139774;29;20036;-80
2023/07/01 20:27:29;;;;;;;3.80;1.48;;;;;;;16.36;100.00;100363.84;10139495;29;20036;-79
2023/07/01 20:32:29;;;;;;;3.50;1.15;;;;;;;16.42;100.00;100375.69;10143091;29;20084;-83
2023/07/01 20:37:30;;;;;;;4.68;1.25;;;;;;;16.36;100.00;100376.91;10153701;29;20036;-82
2023/07/01 20:42:31;;;;;;;7.18;1.40;;;;;;;16.30;100.00;100373.41;10138974;29;20400;-79
2023/07/01 20:47:31;;;;;;;3.70;1.25;;;;;;;16.23;100.00;100368.25;10171684;29;20040;-83
2023/07/01 20:52:32;;;;;;;2.53;1.20;;;;;;;16.15;100.00;100371.72;10168580;29;20036;-78
2023/07/01 20:57:32;;;;;;;5.40;1.30;;;;;;;16.12;100.00;100378.72;10157785;29;20075;-82
2023/07/01 21:02:33;;;;;;;3.17;1.30;;;;;;;16.04;100.00;100373.84;10177471;29;20051;-79
2023/07/01 21:07:33;;;;;;;3.28;1.52;;;;;;;16.04;100.00;100375.78;10161259;29;20115;-82
2023/07/01 21:12:34;;;;;;;4.00;1.77;;;;;;;16.07;100.00;100389.06;10161113;29;20032;-78
2023/07/01 21:17:34;;;;;;;4.60;1.42;;;;;;;16.00;100.00;100389.47;10176793;29;20051;-77
2023/07/01 21:22:36;;;;;;;5.10;1.55;;;;;;;15.54;100.00;100324.38;10177236;29;20123;-82
2023/07/01 21:27:36;;;;;;;6.45;1.65;;;;;;;15.90;100.00;100389.63;10145161;29;20028;-80
2023/07/01 21:32:41;;;;;;;3.58;1.77;;;;;;;15.89;100.00;100388.78;10176442;29;20040;-80
2023/07/01 21:37:43;;;;;;;2.63;1.75;;;;;;;15.90;100.00;100393.22;10158664;29;20044;-79
2023/07/01 21:42:43;;;;;;;6.97;1.65;;;;;;;15.82;100.00;100391.13;10176477;29;20040;-78
2023/07/01 21:47:44;;;;;;;4.28;1.63;;;;;;;15.85;100.00;100398.03;10159073;29;20047;-81
2023/07/01 21:52:44;;;;;;;4.00;2.40;;;;;;;15.82;100.00;100407.78;10176253;29;20040;-80
2023/07/01 21:57:48;;;;;;;5.57;1.98;;;;;;;15.80;100.00;100403.66;10158546;29;20055;-83
2023/07/01 22:02:52;;;;;;;7.68;2.10;;;;;;;15.77;100.00;100410.63;10157640;29;20044;-80
2023/07/01 22:07:52;;;;;;;9.52;2.33;;;;;;;15.74;100.00;100412.06;10156770;29;20047;-81
2023/07/01 22:12:53;;;;;;;3.53;1.95;;;;;;;15.71;100.00;100411.81;10157455;29;20036;-80
2023/07/01 22:17:53;;;;;;;2.55;1.77;;;;;;;15.69;100.00;100402.97;10141472;29;20048;-81
2023/07/01 22:22:53;;;;;;;11.30;3.03;;;;;;;15.64;100.00;100384.41;10158168;29;20051;-82
2023/07/01 22:27:54;;;;;;;12.15;3.70;;;;;;;15.51;100.00;100399.88;10174681;29;20468;-81
2023/07/01 22:32:55;;;;;;;5.97;2.60;;;;;;;15.37;100.00;100389.81;10173692;29;20047;-81
2023/07/01 22:37:57;;;;;;;5.05;2.95;;;;;;;15.29;100.00;100389.34;10173223;29;20043;-81
2023/07/01 22:42:58;;;;;;;5.18;2.78;;;;;;;15.34;100.00;100385.72;10142554;29;20040;-81
2023/07/01 22:47:58;;;;;;;7.72;2.58;;;;;;;15.38;100.00;100397.84;10167647;29;20477;-74